createdAt,value
2022-09-15T00:02:12.080Z,1.42
2022-09-15T00:05:16.234Z,1.98
2022-09-15T00:08:20.042Z,1.27
2022-09-15T00:11:26.834Z,1.48
2022-09-15T00:14:30.441Z,1.70
2022-09-15T00:17:34.406Z,1.40
2022-09-15T00:20:42.561Z,2.72
2022-09-15T00:23:47.769Z,1.30
2022-09-15T00:26:51.414Z,1.95
2022-09-15T00:29:55.315Z,1.70
2022-09-15T00:32:58.857Z,1.08
2022-09-15T00:36:06.927Z,1.10
2022-09-15T00:39:10.341Z,1.20
2022-09-15T00:42:22.263Z,1.05
2022-09-15T00:45:26.259Z,1.10
2022-09-15T00:48:30.457Z,1.20
2022-09-15T00:51:41.800Z,1.15
2022-09-15T00:54:57.209Z,1.48
2022-09-15T00:58:07.189Z,1.77
2022-09-15T01:01:11.965Z,4.65
2022-09-15T01:04:17.169Z,4.53
2022-09-15T01:07:52.883Z,2.30
2022-09-15T01:10:57.805Z,1.65
2022-09-15T01:14:02.419Z,1.70
2022-09-15T01:17:33.324Z,1.90
2022-09-15T01:21:13.656Z,1.83
2022-09-15T01:24:27.182Z,1.80
2022-09-15T01:27:58.339Z,1.63
2022-09-15T01:31:14.854Z,1.63
2022-09-15T01:34:20.735Z,2.15
2022-09-15T01:37:31.638Z,1.52
2022-09-15T01:40:40.557Z,1.50
2022-09-15T01:44:02.716Z,1.30
2022-09-15T01:47:12.399Z,1.27
2022-09-15T01:50:24.003Z,1.60
2022-09-15T01:53:29.107Z,1.30
2022-09-15T01:56:33.387Z,1.70
2022-09-15T01:59:37.168Z,2.00
2022-09-15T02:02:45.908Z,2.45
2022-09-15T02:06:03.320Z,2.70
2022-09-15T02:12:43.901Z,1.10
2022-09-15T02:15:54.224Z,1.60
2022-09-15T02:19:04.062Z,1.92
2022-09-15T02:22:41.960Z,1.48
2022-09-15T02:25:52.126Z,1.73
2022-09-15T02:28:58.599Z,2.10
2022-09-15T02:32:07.103Z,1.50
2022-09-15T02:35:12.465Z,1.90
2022-09-15T02:38:16.150Z,1.98
2022-09-15T02:41:20.504Z,1.50
2022-09-15T02:44:24.778Z,1.65
2022-09-15T02:47:29.620Z,1.90
2022-09-15T02:50:33.242Z,1.40
2022-09-15T02:53:37.993Z,3.15
2022-09-15T02:56:41.665Z,1.98
2022-09-15T03:00:04.048Z,2.10
2022-09-15T03:03:07.611Z,2.20
2022-09-15T03:06:18.166Z,2.83
2022-09-15T03:09:21.713Z,1.80
2022-09-15T03:12:26.452Z,2.88
2022-09-15T03:15:29.981Z,3.78
2022-09-15T03:18:33.577Z,2.45
2022-09-15T03:21:38.111Z,1.83
2022-09-15T03:24:43.389Z,1.88
2022-09-15T03:27:47.461Z,1.70
2022-09-15T03:30:51.491Z,2.00
2022-09-15T03:33:56.635Z,1.25
2022-09-15T03:37:00.319Z,1.35
2022-09-15T03:40:04.714Z,1.40
2022-09-15T03:43:08.530Z,1.00
2022-09-15T03:46:12.902Z,0.70
2022-09-15T03:49:16.573Z,1.75
2022-09-15T03:52:20.180Z,1.10
2022-09-15T03:55:24.032Z,2.00
2022-09-15T03:58:30.572Z,1.10
2022-09-15T04:01:35.427Z,1.10
2022-09-15T04:04:39.326Z,1.17
2022-09-15T04:07:43.636Z,0.80
2022-09-15T04:10:47.363Z,1.30
2022-09-15T04:13:56.710Z,1.05
2022-09-15T04:17:03.181Z,1.25
2022-09-15T04:20:07.720Z,1.60
2022-09-15T04:23:10.971Z,1.40
2022-09-15T04:26:16.869Z,1.50
2022-09-15T04:29:20.498Z,1.63
2022-09-15T04:32:24.464Z,2.22
2022-09-15T04:35:28.151Z,1.80
2022-09-15T04:38:32.252Z,2.15
2022-09-15T04:41:35.766Z,2.00
2022-09-15T04:44:39.070Z,1.92
2022-09-15T04:47:42.811Z,1.60
2022-09-15T04:50:47.082Z,1.75
2022-09-15T04:53:51.234Z,1.98
2022-09-15T04:56:55.455Z,2.20
2022-09-15T04:59:59.161Z,1.98
2022-09-15T05:03:02.734Z,2.22
2022-09-15T05:06:08.421Z,2.47
2022-09-15T05:09:15.000Z,1.98
2022-09-15T05:12:18.616Z,2.20
2022-09-15T05:15:22.890Z,2.33
2022-09-15T05:18:27.210Z,2.40
2022-09-15T05:21:31.992Z,2.15
2022-09-15T05:24:35.620Z,2.08
2022-09-15T05:27:40.261Z,1.60
2022-09-15T05:30:44.520Z,1.60
2022-09-15T05:33:50.405Z,2.33
2022-09-15T05:36:53.732Z,1.45
2022-09-15T05:40:00.859Z,1.55
2022-09-15T05:43:06.084Z,1.08
2022-09-15T05:46:11.872Z,1.33
2022-09-15T05:49:15.705Z,1.70
2022-09-15T05:52:19.340Z,1.40
2022-09-15T05:55:23.096Z,1.58
2022-09-15T05:58:28.293Z,1.60
2022-09-15T06:01:32.021Z,1.33
2022-09-15T06:04:36.103Z,1.50
2022-09-15T06:07:39.878Z,2.30
2022-09-15T06:10:43.756Z,2.38
2022-09-15T06:13:48.575Z,1.90
2022-09-15T06:16:52.042Z,2.40
2022-09-15T06:19:57.425Z,2.33
2022-09-15T06:23:00.705Z,2.15
2022-09-15T06:26:16.555Z,2.42
2022-09-15T06:29:20.299Z,2.60
2022-09-15T06:32:24.355Z,3.00
2022-09-15T06:35:27.658Z,2.47
2022-09-15T06:38:32.518Z,2.85
2022-09-15T06:42:00.710Z,2.90
2022-09-15T06:45:05.355Z,2.55
2022-09-15T06:48:23.820Z,3.28
2022-09-15T06:51:36.220Z,2.92
2022-09-15T06:54:39.750Z,2.60
2022-09-15T06:57:43.524Z,1.98
2022-09-15T07:00:47.249Z,2.22
2022-09-15T07:03:50.706Z,2.70
2022-09-15T07:06:54.132Z,2.75
2022-09-15T07:09:57.069Z,2.70
2022-09-15T07:13:01.778Z,3.03
2022-09-15T07:16:08.288Z,2.15
2022-09-15T07:19:12.293Z,2.30
2022-09-15T07:22:16.251Z,2.90
2022-09-15T07:25:19.910Z,2.30
2022-09-15T07:28:24.175Z,3.20
2022-09-15T07:31:30.600Z,2.72
2022-09-15T07:34:34.311Z,2.80
2022-09-15T07:37:38.055Z,3.05
2022-09-15T07:40:41.704Z,3.50
2022-09-15T07:43:53.961Z,3.35
2022-09-15T07:46:57.858Z,4.03
2022-09-15T07:50:01.419Z,3.95
2022-09-15T07:53:05.754Z,3.45
2022-09-15T07:56:09.800Z,3.10
2022-09-15T07:59:13.818Z,2.35
2022-09-15T08:02:19.278Z,1.80
2022-09-15T08:05:27.833Z,1.20
2022-09-15T08:08:31.483Z,1.23
2022-09-15T08:11:35.482Z,2.50
2022-09-15T08:14:39.106Z,1.85
2022-09-15T08:17:43.217Z,1.45
2022-09-15T08:20:46.861Z,1.70
2022-09-15T08:23:56.808Z,1.40
2022-09-15T08:27:00.337Z,1.50
2022-09-15T08:30:05.454Z,1.30
2022-09-15T08:33:09.010Z,1.30
2022-09-15T08:36:13.304Z,1.42
2022-09-15T08:39:16.854Z,0.80
2022-09-15T08:42:22.806Z,1.52
2022-09-15T08:45:30.051Z,0.90
2022-09-15T08:48:49.725Z,1.10
2022-09-15T08:51:53.874Z,0.88
2022-09-15T08:54:59.922Z,1.23
2022-09-15T08:58:04.125Z,1.20
2022-09-15T09:01:07.864Z,1.20
2022-09-15T09:04:18.192Z,1.10
2022-09-15T09:07:22.175Z,1.30
2022-09-15T09:10:25.803Z,1.42
2022-09-15T09:13:46.896Z,2.30
2022-09-15T09:17:34.674Z,2.20
2022-09-15T09:20:54.095Z,1.38
2022-09-15T09:24:03.867Z,1.52
2022-09-15T09:27:15.267Z,0.90
2022-09-15T09:30:33.070Z,1.30
2022-09-15T09:33:47.753Z,1.55
2022-09-15T09:36:57.877Z,1.63
2022-09-15T09:40:02.145Z,1.75
2022-09-15T09:43:06.103Z,1.88
2022-09-15T09:46:18.806Z,1.98
2022-09-15T09:49:25.953Z,1.95
2022-09-15T09:52:40.435Z,1.58
2022-09-15T09:55:46.352Z,2.00
2022-09-15T09:58:50.118Z,1.60
2022-09-15T10:02:11.545Z,1.50
2022-09-15T10:05:20.751Z,1.50
2022-09-15T10:08:24.089Z,1.75
2022-09-15T10:12:07.098Z,1.70
2022-09-15T10:15:24.291Z,1.45
2022-09-15T10:21:31.626Z,1.52
2022-09-15T10:24:41.177Z,1.48
2022-09-15T10:27:44.725Z,1.50
2022-09-15T10:31:04.833Z,1.65
2022-09-15T10:34:28.549Z,1.40
2022-09-15T10:37:58.530Z,1.80
2022-09-15T10:41:32.517Z,2.15
2022-09-15T10:44:57.580Z,2.80
2022-09-15T10:48:16.147Z,2.40
2022-09-15T10:51:30.372Z,1.85
2022-09-15T10:55:22.015Z,2.75
2022-09-15T10:58:46.312Z,4.00
2022-09-15T11:01:56.213Z,3.35
2022-09-15T11:05:20.397Z,4.32
2022-09-15T11:08:37.865Z,3.30
2022-09-15T11:12:03.223Z,3.00
2022-09-15T11:15:34.824Z,2.95
2022-09-15T11:19:00.422Z,2.63
2022-09-15T11:22:19.344Z,2.13
2022-09-15T11:25:30.804Z,2.58
2022-09-15T11:28:42.555Z,2.28
2022-09-15T11:31:52.835Z,1.90
2022-09-15T11:35:18.691Z,1.80
2022-09-15T11:39:01.115Z,2.20
2022-09-15T11:42:27.496Z,2.92
2022-09-15T11:45:37.857Z,3.40
2022-09-15T11:48:48.159Z,4.13
2022-09-15T11:52:16.413Z,5.38
2022-09-15T11:55:41.248Z,5.43
2022-09-15T11:58:56.895Z,4.05
2022-09-15T12:02:19.958Z,4.47
2022-09-15T12:05:40.433Z,4.90
2022-09-15T12:08:49.388Z,5.85
2022-09-15T12:12:08.219Z,6.63
2022-09-15T12:15:17.998Z,7.20
2022-09-15T12:18:39.322Z,7.15
2022-09-15T12:22:02.296Z,5.50
2022-09-15T12:25:16.648Z,4.38
2022-09-15T12:28:23.281Z,4.60
2022-09-15T12:31:36.459Z,5.05
2022-09-15T12:35:27.717Z,5.05
2022-09-15T12:38:31.296Z,4.57
2022-09-15T12:41:34.986Z,3.72
2022-09-15T12:44:46.354Z,2.60
2022-09-15T12:48:12.426Z,2.67
2022-09-15T12:51:24.967Z,2.17
2022-09-15T12:54:32.322Z,2.28
2022-09-15T13:01:00.676Z,2.30
2022-09-15T13:04:08.234Z,2.85
2022-09-15T13:07:20.945Z,1.63
2022-09-15T13:10:31.080Z,1.55
2022-09-15T13:14:08.475Z,1.58
2022-09-15T13:17:20.584Z,1.00
2022-09-15T13:20:32.412Z,0.70
2022-09-15T13:23:40.794Z,0.80
2022-09-15T13:26:48.381Z,1.42
2022-09-15T13:30:04.895Z,1.90
2022-09-15T13:33:21.933Z,2.50
2022-09-15T13:40:38.092Z,2.10
2022-09-15T13:43:42.171Z,6.63
2022-09-15T13:46:57.610Z,1.80
2022-09-15T13:50:26.203Z,1.80
2022-09-15T13:53:43.154Z,2.00
2022-09-15T13:56:54.068Z,2.47
2022-09-15T13:59:57.796Z,1.92
2022-09-15T14:03:12.403Z,3.45
2022-09-15T14:06:23.815Z,10.40
2022-09-15T14:09:48.420Z,10.63
2022-09-15T14:12:52.648Z,11.38
2022-09-15T14:16:02.835Z,8.60
2022-09-15T14:19:28.945Z,5.78
2022-09-15T14:22:36.498Z,6.03
2022-09-15T14:25:46.655Z,6.03
2022-09-15T14:28:53.000Z,6.57
2022-09-15T14:32:01.539Z,8.20
2022-09-15T14:35:08.765Z,8.73
2022-09-15T14:38:24.624Z,10.40
2022-09-15T14:41:33.738Z,9.93
2022-09-15T14:48:14.908Z,9.20
2022-09-15T14:51:26.108Z,8.95
2022-09-15T14:54:35.386Z,8.63
2022-09-15T15:01:09.233Z,8.75
2022-09-15T15:04:41.605Z,8.48
2022-09-15T15:07:45.552Z,8.18
2022-09-15T15:10:49.889Z,7.70
2022-09-15T15:13:53.918Z,5.93
2022-09-15T15:17:02.788Z,7.00
2022-09-15T15:20:09.755Z,7.25
2022-09-15T15:23:16.471Z,7.82
2022-09-15T15:26:27.819Z,5.75
2022-09-15T15:29:43.951Z,4.88
2022-09-15T15:32:47.768Z,6.53
2022-09-15T15:36:12.370Z,5.82
2022-09-15T15:39:25.780Z,6.70
2022-09-15T15:42:30.222Z,8.50
2022-09-15T15:45:35.849Z,9.10
2022-09-15T15:48:39.850Z,8.93
2022-09-15T15:51:43.633Z,9.13
2022-09-15T15:54:47.711Z,7.97
2022-09-15T15:57:56.047Z,5.38
2022-09-15T16:00:59.761Z,5.05
2022-09-15T16:04:04.469Z,4.47
2022-09-15T16:07:09.981Z,4.78
2022-09-15T16:10:20.055Z,4.80
2022-09-15T16:13:24.920Z,4.35
2022-09-15T16:16:29.731Z,3.25
2022-09-15T16:19:33.712Z,2.45
2022-09-15T16:22:38.108Z,2.30
2022-09-15T16:25:46.465Z,5.20
2022-09-15T16:28:50.312Z,5.80
2022-09-15T16:31:54.479Z,5.32
2022-09-15T16:34:58.188Z,4.13
2022-09-15T16:38:02.138Z,3.40
2022-09-15T16:41:13.754Z,2.97
2022-09-15T16:44:20.425Z,2.13
2022-09-15T16:47:23.812Z,2.10
2022-09-15T16:50:27.034Z,2.10
2022-09-15T16:53:31.883Z,3.17
2022-09-15T16:56:34.997Z,2.47
2022-09-15T16:59:39.101Z,2.80
2022-09-15T17:02:42.883Z,3.45
2022-09-15T17:06:00.517Z,2.85
2022-09-15T17:09:04.301Z,2.72
2022-09-15T17:15:26.724Z,1.80
2022-09-15T17:18:30.965Z,1.77
2022-09-15T17:21:34.512Z,1.00
2022-09-15T17:24:38.599Z,1.20
2022-09-15T17:27:42.269Z,1.10
2022-09-15T17:30:46.473Z,0.93
2022-09-15T17:33:51.193Z,0.90
2022-09-15T17:36:54.403Z,0.90
2022-09-15T17:39:59.069Z,1.13
2022-09-15T17:43:04.012Z,1.02
2022-09-15T17:46:09.350Z,1.10
2022-09-15T17:49:13.459Z,1.15
2022-09-15T17:52:17.175Z,1.17
2022-09-15T17:55:27.734Z,1.27
2022-09-15T17:58:32.480Z,1.63
2022-09-15T18:01:36.531Z,0.93
2022-09-15T18:04:39.957Z,1.25
2022-09-15T18:07:58.264Z,1.20
2022-09-15T18:11:02.412Z,1.40
2022-09-15T18:14:07.515Z,1.48
2022-09-15T18:17:12.518Z,1.10
2022-09-15T18:20:21.414Z,1.52
2022-09-15T18:23:28.810Z,0.93
2022-09-15T18:26:32.203Z,1.20
2022-09-15T18:29:35.128Z,1.00
2022-09-15T18:32:38.365Z,1.02
2022-09-15T18:35:42.962Z,1.02
2022-09-15T18:38:47.051Z,1.10
2022-09-15T18:41:50.688Z,1.27
2022-09-15T18:44:54.598Z,0.95
2022-09-15T18:47:58.339Z,0.90
2022-09-15T18:51:02.058Z,0.93
2022-09-15T18:54:05.615Z,1.08
2022-09-15T18:57:09.111Z,0.75
2022-09-15T19:00:15.804Z,0.60
2022-09-15T19:03:19.766Z,0.80
2022-09-15T19:06:23.418Z,0.57
2022-09-15T19:09:27.136Z,0.75
2022-09-15T19:12:30.621Z,0.63
2022-09-15T19:15:35.409Z,0.80
2022-09-15T19:18:38.999Z,1.00
2022-09-15T19:21:42.793Z,0.90
2022-09-15T19:24:46.346Z,0.90
2022-09-15T19:27:50.106Z,0.88
2022-09-15T19:30:54.474Z,0.90
2022-09-15T19:33:58.261Z,0.98
2022-09-15T19:37:04.074Z,0.90
2022-09-15T19:40:13.995Z,1.23
2022-09-15T19:43:17.884Z,1.00
2022-09-15T19:46:27.438Z,0.90
2022-09-15T19:49:31.538Z,0.73
2022-09-15T19:52:35.232Z,0.65
2022-09-15T19:55:39.164Z,0.80
2022-09-15T19:58:43.002Z,0.85
2022-09-15T20:01:47.876Z,0.50
2022-09-15T20:08:12.621Z,0.40
2022-09-15T20:11:16.391Z,0.50
2022-09-15T20:14:20.452Z,0.50
2022-09-15T20:17:24.149Z,0.50
2022-09-15T20:20:28.273Z,0.68
2022-09-15T20:23:32.437Z,0.65
2022-09-15T20:26:37.659Z,0.65
2022-09-15T20:29:41.557Z,0.65
2022-09-15T20:32:45.763Z,0.63
2022-09-15T20:35:49.189Z,0.57
2022-09-15T20:38:54.742Z,0.60
2022-09-15T20:41:58.670Z,0.70
2022-09-15T20:45:02.285Z,0.60
2022-09-15T20:48:05.381Z,0.60
2022-09-15T20:51:17.852Z,0.60
2022-09-15T20:54:21.544Z,0.70
2022-09-15T20:57:25.774Z,0.57
2022-09-15T21:00:33.789Z,0.60
2022-09-15T21:03:40.397Z,1.13
2022-09-15T21:06:44.289Z,0.68
2022-09-15T21:09:48.849Z,0.73
2022-09-15T21:12:52.711Z,0.57
2022-09-15T21:15:59.537Z,0.47
2022-09-15T21:19:06.161Z,0.47
2022-09-15T21:22:10.087Z,0.50
2022-09-15T21:25:13.991Z,0.75
2022-09-15T21:28:18.066Z,0.50
2022-09-15T21:31:24.165Z,0.50
2022-09-15T21:34:28.915Z,0.40
2022-09-15T21:37:33.360Z,0.60
2022-09-15T21:40:37.886Z,0.50
2022-09-15T21:43:43.860Z,0.52
2022-09-15T21:46:48.143Z,0.73
2022-09-15T21:49:52.241Z,0.60
2022-09-15T21:52:56.174Z,0.60
2022-09-15T21:56:08.960Z,0.60
2022-09-15T21:59:13.040Z,0.68
2022-09-15T22:02:17.617Z,0.77
2022-09-15T22:05:21.737Z,1.08
2022-09-15T22:08:25.326Z,0.68
2022-09-15T22:11:29.256Z,0.93
2022-09-15T22:14:33.289Z,0.80
2022-09-15T22:17:36.841Z,0.80
2022-09-15T22:20:40.884Z,0.80
2022-09-15T22:23:46.051Z,0.77
2022-09-15T22:26:50.252Z,1.60
2022-09-15T22:29:53.855Z,0.60
2022-09-15T22:32:57.816Z,0.60
2022-09-15T22:36:02.108Z,0.70
2022-09-15T22:39:06.542Z,0.82
2022-09-15T22:42:09.437Z,1.35
2022-09-15T22:45:13.200Z,1.15
2022-09-15T22:48:16.613Z,1.15
2022-09-15T22:51:20.598Z,0.77
2022-09-15T22:54:24.220Z,1.17
2022-09-15T22:57:28.178Z,1.13
2022-09-15T23:00:33.108Z,1.48
2022-09-15T23:03:38.669Z,0.70
2022-09-15T23:06:42.358Z,0.63
2022-09-15T23:09:46.362Z,0.50
2022-09-15T23:12:50.134Z,0.65
2022-09-15T23:15:54.129Z,0.52
2022-09-15T23:18:58.696Z,0.45
2022-09-15T23:22:02.962Z,0.70
2022-09-15T23:25:06.640Z,0.50
2022-09-15T23:28:10.441Z,0.50
2022-09-15T23:31:15.021Z,0.70
2022-09-15T23:34:18.748Z,0.52
2022-09-15T23:37:22.467Z,0.57
2022-09-15T23:40:27.534Z,0.50
2022-09-15T23:43:34.003Z,0.50
2022-09-15T23:46:37.726Z,0.95
2022-09-15T23:49:42.403Z,0.45
2022-09-15T23:52:46.094Z,0.50
2022-09-15T23:55:49.131Z,0.60
2022-09-15T23:58:52.083Z,2.97
